Time,TemperatureF,DewpointF,PressureIn,WindDirection,WindDirectionDegrees,WindSpeedMPH,WindSpeedGustMPH,Humidity,HourlyPrecipIn,Conditions,Clouds,dailyrainin,SoftwareType,DateUTC
2013-03-08 00:06:00,37.4,27.0,30.25,South,169,1.0,3.0,65,0.00,,,0.00,weatherlink.com 1.10,2013-03-08 05:06:00,
2013-03-08 00:21:00,37.1,26.0,30.25,SW,224,1.0,2.0,65,0.00,,,0.00,weatherlink.com 1.10,2013-03-08 05:21:00,
2013-03-08 00:36:00,36.9,26.0,30.25,SSW,199,0.0,2.0,65,0.00,,,0.00,weatherlink.com 1.10,2013-03-08 05:36:00,
2013-03-08 00:51:00,36.6,26.0,30.25,South,182,0.0,4.0,66,0.00,,,0.00,weatherlink.com 1.10,2013-03-08 05:51:00,
2013-03-08 01:06:00,36.4,26.0,30.25,South,173,0.0,3.0,66,0.00,,,0.00,weatherlink.com 1.10,2013-03-08 06:06:00,
2013-03-08 01:21:00,36.2,26.0,30.26,South,186,1.0,4.0,66,0.00,,,0.00,weatherlink.com 1.10,2013-03-08 06:21:00,
2013-03-08 01:36:00,36.0,26.0,30.26,SE,141,0.0,2.0,67,0.00,,,0.00,weatherlink.com 1.10,2013-03-08 06:36:00,
2013-03-08 01:51:00,35.7,26.0,30.26,South,182,2.0,5.0,67,0.00,,,0.00,weatherlink.com 1.10,2013-03-08 06:51:00,
2013-03-08 02:06:00,35.4,26.0,30.26,South,173,1.0,4.0,68,0.00,,,0.00,weatherlink.com 1.10,2013-03-08 07:06:00,
2013-03-08 02:21:00,35.1,25.0,30.26,SSE,154,2.0,3.0,68,0.00,,,0.00,weatherlink.com 1.10,2013-03-08 07:21:00,
2013-03-08 02:36:00,34.8,25.0,30.27,SSE,161,1.0,4.0,68,0.00,,,0.00,weatherlink.com 1.10,2013-03-08 07:36:00,
2013-03-08 02:52:00,34.4,25.0,30.27,SSE,156,1.0,1.0,69,0.00,,,0.00,weatherlink.com 1.10,2013-03-08 07:52:00,
2013-03-08 03:07:00,33.9,25.0,30.27,SE,128,0.0,2.0,69,0.00,,,0.00,weatherlink.com 1.10,2013-03-08 08:07:00,
2013-03-08 03:22:00,33.5,25.0,30.27,South,171,1.0,2.0,70,0.00,,,0.00,weatherlink.com 1.10,2013-03-08 08:22:00,
2013-03-08 03:37:00,33.3,24.0,30.27,South,178,0.0,3.0,70,0.00,,,0.00,weatherlink.com 1.10,2013-03-08 08:37:00,
2013-03-08 03:52:00,32.9,24.0,30.27,South,178,0.0,0.0,71,0.00,,,0.00,weatherlink.com 1.10,2013-03-08 08:52:00,
2013-03-08 04:07:00,32.4,25.0,30.28,South,178,0.0,0.0,73,0.00,,,0.00,weatherlink.com 1.10,2013-03-08 09:07:00,
2013-03-08 04:22:00,31.6,25.0,30.28,South,178,0.0,0.0,76,0.00,,,0.00,weatherlink.com 1.10,2013-03-08 09:22:00,
2013-03-08 04:37:00,30.8,25.0,30.28,South,178,0.0,0.0,79,0.00,,,0.00,weatherlink.com 1.10,2013-03-08 09:37:00,
2013-03-08 04:52:00,30.2,25.0,30.29,South,178,0.0,0.0,80,0.00,,,0.00,weatherlink.com 1.10,2013-03-08 09:52:00,
2013-03-08 05:07:00,29.7,25.0,30.29,South,178,0.0,0.0,82,0.00,,,0.00,weatherlink.com 1.10,2013-03-08 10:07:00,
2013-03-08 05:22:00,29.2,25.0,30.29,South,178,0.0,0.0,83,0.00,,,0.00,weatherlink.com 1.10,2013-03-08 10:22:00,
2013-03-08 05:37:00,28.8,25.0,30.29,South,178,0.0,0.0,85,0.00,,,0.00,weatherlink.com 1.10,2013-03-08 10:37:00,
2013-03-08 05:52:00,28.7,25.0,30.30,South,178,0.0,0.0,84,0.00,,,0.00,weatherlink.com 1.10,2013-03-08 10:52:00,
2013-03-08 06:07:00,28.4,25.0,30.30,South,178,0.0,0.0,85,0.00,,,0.00,weatherlink.com 1.10,2013-03-08 11:07:00,
2013-03-08 06:22:00,28.2,24.0,30.30,South,178,0.0,1.0,85,0.00,,,0.00,weatherlink.com 1.10,2013-03-08 11:22:00,
2013-03-08 06:37:00,28.2,25.0,30.30,South,178,1.0,1.0,86,0.00,,,0.00,weatherlink.com 1.10,2013-03-08 11:37:00,
2013-03-08 06:52:00,28.2,25.0,30.31,South,178,0.0,0.0,87,0.00,,,0.00,weatherlink.com 1.10,2013-03-08 11:52:00,
2013-03-08 07:07:00,28.0,24.0,30.31,South,178,0.0,0.0,86,0.00,,,0.00,weatherlink.com 1.10,2013-03-08 12:07:00,
2013-03-08 07:22:00,27.9,25.0,30.31,South,178,0.0,0.0,88,0.00,,,0.00,weatherlink.com 1.10,2013-03-08 12:22:00,
2013-03-08 07:37:00,29.1,26.0,30.31,South,178,0.0,0.0,88,0.00,,,0.00,weatherlink.com 1.10,2013-03-08 12:37:00,
2013-03-08 07:52:00,31.1,27.0,30.32,South,178,0.0,0.0,86,0.00,,,0.00,weatherlink.com 1.10,2013-03-08 12:52:00,
2013-03-08 08:07:00,33.6,28.0,30.33,South,178,0.0,0.0,81,0.00,,,0.00,weatherlink.com 1.10,2013-03-08 13:07:00,
2013-03-08 08:22:00,36.3,28.0,30.33,South,178,0.0,1.0,72,0.00,,,0.00,weatherlink.com 1.10,2013-03-08 13:22:00,
2013-03-08 08:37:00,38.5,28.0,30.34,South,178,0.0,1.0,66,0.00,,,0.00,weatherlink.com 1.10,2013-03-08 13:37:00,
2013-03-08 08:52:00,39.9,27.0,30.34,WSW,241,0.0,2.0,61,0.00,,,0.00,weatherlink.com 1.10,2013-03-08 13:52:00,
2013-03-08 09:07:00,40.3,27.0,30.34,ENE,60,0.0,3.0,59,0.00,,,0.00,weatherlink.com 1.10,2013-03-08 14:07:00,
2013-03-08 09:22:00,41.4,27.0,30.34,NNE,18,2.0,3.0,58,0.00,,,0.00,weatherlink.com 1.10,2013-03-08 14:22:00,
2013-03-08 09:38:00,41.9,29.0,30.34,NNW,344,1.0,4.0,60,0.00,,,0.00,weatherlink.com 1.10,2013-03-08 14:38:00,
2013-03-08 09:53:00,43.0,29.0,30.33,West,277,2.0,4.0,57,0.00,,,0.00,weatherlink.com 1.10,2013-03-08 14:53:00,
2013-03-08 10:08:00,43.4,28.0,30.34,ENE,67,1.0,5.0,55,0.00,,,0.00,weatherlink.com 1.10,2013-03-08 15:08:00,
2013-03-08 10:23:00,43.9,28.0,30.33,SSW,210,2.0,3.0,53,0.00,,,0.00,weatherlink.com 1.10,2013-03-08 15:23:00,
2013-03-08 10:38:00,46.0,28.0,30.34,South,186,4.0,5.0,50,0.00,,,0.00,weatherlink.com 1.10,2013-03-08 15:38:00,
2013-03-08 10:53:00,46.6,28.0,30.33,South,185,3.0,5.0,48,0.00,,,0.00,weatherlink.com 1.10,2013-03-08 15:53:00,
2013-03-08 11:08:00,48.1,26.0,30.32,NNW,336,1.0,5.0,43,0.00,,,0.00,weatherlink.com 1.10,2013-03-08 16:08:00,
2013-03-08 11:23:00,49.4,27.0,30.32,South,186,1.0,3.0,42,0.00,,,0.00,weatherlink.com 1.10,2013-03-08 16:23:00,
2013-03-08 11:38:00,50.9,27.0,30.31,South,178,0.0,4.0,39,0.00,,,0.00,weatherlink.com 1.10,2013-03-08 16:38:00,
2013-03-08 11:53:00,51.5,24.0,30.31,NNE,25,0.0,6.0,34,0.00,,,0.00,weatherlink.com 1.10,2013-03-08 16:53:00,
2013-03-08 12:08:00,53.0,24.0,30.30,SSW,192,3.0,4.0,33,0.00,,,0.00,weatherlink.com 1.10,2013-03-08 17:08:00,
2013-03-08 12:23:00,53.4,23.0,30.30,SW,235,1.0,5.0,31,0.00,,,0.00,weatherlink.com 1.10,2013-03-08 17:23:00,
2013-03-08 12:38:00,55.4,24.0,30.29,West,264,1.0,3.0,30,0.00,,,0.00,weatherlink.com 1.10,2013-03-08 17:38:00,
2013-03-08 12:53:00,56.6,23.0,30.28,NW,308,2.0,5.0,27,0.00,,,0.00,weatherlink.com 1.10,2013-03-08 17:53:00,
2013-03-08 13:08:00,56.3,20.0,30.28,North,355,3.0,5.0,24,0.00,,,0.00,weatherlink.com 1.10,2013-03-08 18:08:00,
2013-03-08 13:23:00,57.9,21.0,30.27,SSW,201,3.0,4.0,24,0.00,,,0.00,weatherlink.com 1.10,2013-03-08 18:23:00,
2013-03-08 13:38:00,58.0,20.0,30.26,NNE,15,2.0,9.0,23,0.00,,,0.00,weatherlink.com 1.10,2013-03-08 18:38:00,
2013-03-08 13:53:00,58.4,19.0,30.26,SSW,203,3.0,6.0,22,0.00,,,0.00,weatherlink.com 1.10,2013-03-08 18:53:00,
2013-03-08 14:08:00,59.0,20.0,30.26,WSW,247,5.0,7.0,22,0.00,,,0.00,weatherlink.com 1.10,2013-03-08 19:08:00,
2013-03-08 14:23:00,59.5,21.0,30.25,SW,221,2.0,5.0,23,0.00,,,0.00,weatherlink.com 1.10,2013-03-08 19:23:00,
2013-03-08 14:54:00,60.6,22.0,30.24,SW,230,0.0,6.0,23,0.00,,,0.00,weatherlink.com 1.10,2013-03-08 19:54:00,
2013-03-08 15:09:00,61.4,24.0,30.24,NNW,342,4.0,4.0,24,0.00,,,0.00,weatherlink.com 1.10,2013-03-08 20:09:00,
2013-03-08 15:24:00,61.2,22.0,30.23,East,96,1.0,5.0,22,0.00,,,0.00,weatherlink.com 1.10,2013-03-08 20:24:00,
2013-03-08 15:39:00,61.8,22.0,30.21,WNW,300,1.0,4.0,22,0.00,,,0.00,weatherlink.com 1.10,2013-03-08 20:39:00,
2013-03-08 15:54:00,62.2,23.0,30.21,SW,219,2.0,5.0,22,0.00,,,0.00,weatherlink.com 1.10,2013-03-08 20:54:00,
2013-03-08 16:09:00,62.8,23.0,30.21,West,275,4.0,5.0,22,0.00,,,0.00,weatherlink.com 1.10,2013-03-08 21:09:00,
2013-03-08 16:24:00,62.2,25.0,30.21,South,178,1.0,5.0,24,0.00,,,0.00,weatherlink.com 1.10,2013-03-08 21:24:00,
2013-03-08 16:39:00,62.7,24.0,30.20,South,186,0.0,5.0,23,0.00,,,0.00,weatherlink.com 1.10,2013-03-08 21:39:00,
2013-03-08 16:54:00,62.5,23.0,30.21,West,269,2.0,5.0,22,0.00,,,0.00,weatherlink.com 1.10,2013-03-08 21:54:00,
2013-03-08 17:09:00,62.3,23.0,30.21,SSW,196,2.0,4.0,22,0.00,,,0.00,weatherlink.com 1.10,2013-03-08 22:09:00,
2013-03-08 17:24:00,62.3,24.0,30.21,SSW,199,3.0,3.0,23,0.00,,,0.00,weatherlink.com 1.10,2013-03-08 22:24:00,
2013-03-08 17:39:00,60.8,23.0,30.21,SSW,202,0.0,2.0,23,0.00,,,0.00,weatherlink.com 1.10,2013-03-08 22:39:00,
2013-03-08 17:54:00,59.6,24.0,30.22,SSW,202,0.0,2.0,26,0.00,,,0.00,weatherlink.com 1.10,2013-03-08 22:54:00,
2013-03-08 18:09:00,58.7,26.0,30.22,SSW,202,0.0,1.0,29,0.00,,,0.00,weatherlink.com 1.10,2013-03-08 23:09:00,
2013-03-08 18:24:00,57.6,26.0,30.23,SSW,202,0.0,0.0,30,0.00,,,0.00,weatherlink.com 1.10,2013-03-08 23:24:00,
2013-03-08 18:39:00,55.5,29.0,30.24,SSW,202,1.0,2.0,36,0.00,,,0.00,weatherlink.com 1.10,2013-03-08 23:39:00,
2013-03-08 18:54:00,53.7,26.0,30.24,SSW,202,0.0,1.0,34,0.00,,,0.00,weatherlink.com 1.10,2013-03-08 23:54:00,
2013-03-08 19:09:00,52.6,24.0,30.25,SSW,202,0.0,0.0,33,0.00,,,0.00,weatherlink.com 1.10,2013-03-09 00:09:00,
2013-03-08 19:24:00,51.4,23.0,30.26,SSW,202,0.0,0.0,33,0.00,,,0.00,weatherlink.com 1.10,2013-03-09 00:24:00,
2013-03-08 19:39:00,49.7,27.0,30.26,SSW,202,0.0,1.0,42,0.00,,,0.00,weatherlink.com 1.10,2013-03-09 00:39:00,
2013-03-08 19:54:00,48.7,20.0,30.27,NW,310,0.0,3.0,32,0.00,,,0.00,weatherlink.com 1.10,2013-03-09 00:54:00,
2013-03-08 20:09:00,47.7,25.0,30.27,NW,310,0.0,0.0,41,0.00,,,0.00,weatherlink.com 1.10,2013-03-09 01:09:00,
2013-03-08 20:24:00,46.0,27.0,30.28,NW,310,0.0,1.0,47,0.00,,,0.00,weatherlink.com 1.10,2013-03-09 01:24:00,
2013-03-08 20:39:00,44.8,27.0,30.28,NW,310,0.0,2.0,51,0.00,,,0.00,weatherlink.com 1.10,2013-03-09 01:39:00,
2013-03-08 20:54:00,43.9,25.0,30.28,NW,323,0.0,1.0,47,0.00,,,0.00,weatherlink.com 1.10,2013-03-09 01:54:00,
2013-03-08 21:09:00,43.1,26.0,30.28,NW,323,0.0,1.0,51,0.00,,,0.00,weatherlink.com 1.10,2013-03-09 02:09:00,
2013-03-08 21:24:00,42.6,23.0,30.28,NW,323,0.0,0.0,46,0.00,,,0.00,weatherlink.com 1.10,2013-03-09 02:24:00,
2013-03-08 21:39:00,43.0,23.0,30.28,NW,323,0.0,1.0,46,0.00,,,0.00,weatherlink.com 1.10,2013-03-09 02:39:00,
2013-03-08 21:54:00,42.6,28.0,30.28,NW,323,0.0,1.0,56,0.00,,,0.00,weatherlink.com 1.10,2013-03-09 02:54:00,
2013-03-08 22:09:00,42.1,22.0,30.28,NNW,340,1.0,2.0,45,0.00,,,0.00,weatherlink.com 1.10,2013-03-09 03:09:00,
2013-03-08 22:24:00,41.9,22.0,30.29,NNW,340,0.0,1.0,46,0.00,,,0.00,weatherlink.com 1.10,2013-03-09 03:24:00,
2013-03-08 22:39:00,41.9,27.0,30.29,NNW,340,0.0,0.0,57,0.00,,,0.00,weatherlink.com 1.10,2013-03-09 03:39:00,
2013-03-08 22:54:00,40.8,25.0,30.29,NNW,340,0.0,0.0,54,0.00,,,0.00,weatherlink.com 1.10,2013-03-09 03:54:00,
2013-03-08 23:10:00,39.8,26.0,30.29,NNW,340,0.0,1.0,58,0.00,,,0.00,weatherlink.com 1.10,2013-03-09 04:10:00,
2013-03-08 23:24:00,39.4,27.0,30.30,NNW,340,0.0,0.0,62,0.00,,,0.00,weatherlink.com 1.10,2013-03-09 04:24:00,
2013-03-08 23:39:00,38.5,26.0,30.30,NNW,340,0.0,2.0,60,0.00,,,0.00,weatherlink.com 1.10,2013-03-09 04:39:00,
2013-03-08 23:54:00,37.9,25.0,30.30,NNW,340,0.0,1.0,61,0.00,,,0.00,weatherlink.com 1.10,2013-03-09 04:54:00,